Time,TemperatureF,DewpointF,PressureIn,WindDirection,WindDirectionDegrees,WindSpeedMPH,WindSpeedGustMPH,Humidity,HourlyPrecipIn,Conditions,Clouds,dailyrainin,SoftwareType,DateUTC
2013-05-16 00:00:00,64.3,57.6,30.02,NW,319,0.0,0.0,79,0.00,CLR,,0.00,WeatherDisplay:10.37,2013-05-16 04:00:00,
2013-05-16 00:10:00,63.9,58.3,30.02,NW,319,0.0,0.0,82,0.00,CLR,,0.00,WeatherDisplay:10.37,2013-05-16 04:10:00,
2013-05-16 00:20:00,63.6,58.0,30.02,NW,319,0.0,0.0,82,0.00,CLR,,0.00,WeatherDisplay:10.37,2013-05-16 04:20:00,
2013-05-16 00:30:00,63.2,57.6,30.02,NW,319,0.0,0.0,82,0.00,CLR,,0.00,WeatherDisplay:10.37,2013-05-16 04:30:00,
2013-05-16 00:40:00,62.7,57.5,30.02,NW,319,0.0,0.0,83,0.00,CLR,,0.00,WeatherDisplay:10.37,2013-05-16 04:40:00,
2013-05-16 00:50:00,62.4,57.5,30.01,NW,319,0.0,0.0,84,0.00,CLR,,0.00,WeatherDisplay:10.37,2013-05-16 04:50:00,
2013-05-16 01:01:00,62.1,57.5,30.01,NW,319,0.0,0.0,85,0.00,CLR,,0.00,WeatherDisplay:10.37,2013-05-16 05:01:00,
2013-05-16 01:10:00,62.0,57.4,30.02,NW,318,0.0,2.0,85,0.00,CLR,,0.00,WeatherDisplay:10.37,2013-05-16 05:10:00,
2013-05-16 01:20:00,62.1,57.5,30.01,NW,309,0.0,1.0,85,0.00,CLR,,0.00,WeatherDisplay:10.37,2013-05-16 05:20:00,
2013-05-16 01:30:00,62.4,57.5,30.01,NW,309,0.0,1.0,84,0.00,CLR,,0.00,WeatherDisplay:10.37,2013-05-16 05:30:00,
2013-05-16 01:40:00,63.6,57.7,30.01,West,264,1.0,4.0,81,0.00,CLR,,0.00,WeatherDisplay:10.37,2013-05-16 05:40:00,
2013-05-16 01:50:00,65.3,58.3,30.01,WSW,250,0.0,2.0,78,0.00,CLR,,0.00,WeatherDisplay:10.37,2013-05-16 05:50:00,
2013-05-16 02:01:00,64.7,58.0,30.01,WSW,250,0.0,0.0,79,0.00,CLR,,0.00,WeatherDisplay:10.37,2013-05-16 06:01:00,
2013-05-16 02:10:00,63.9,57.6,30.01,WSW,250,0.0,0.0,80,0.00,CLR,,0.00,WeatherDisplay:10.37,2013-05-16 06:10:00,
2013-05-16 02:20:00,63.2,57.6,30.00,WSW,250,0.0,0.0,82,0.00,CLR,,0.00,WeatherDisplay:10.37,2013-05-16 06:20:00,
2013-05-16 02:30:00,62.7,57.5,30.00,WSW,250,0.0,0.0,83,0.00,CLR,,0.00,WeatherDisplay:10.37,2013-05-16 06:30:00,
2013-05-16 02:40:00,62.3,57.4,30.00,WSW,250,0.0,0.0,84,0.00,CLR,,0.00,WeatherDisplay:10.37,2013-05-16 06:40:00,
2013-05-16 02:50:00,62.0,57.4,30.00,WSW,250,0.0,0.0,85,0.00,CLR,,0.00,WeatherDisplay:10.37,2013-05-16 06:50:00,
2013-05-16 03:01:00,62.0,57.4,30.00,WSW,250,0.0,0.0,85,0.00,CLR,,0.00,WeatherDisplay:10.37,2013-05-16 07:01:00,
2013-05-16 03:10:00,61.9,57.3,30.00,WSW,250,0.0,0.0,85,0.00,CLR,,0.00,WeatherDisplay:10.37,2013-05-16 07:10:00,
2013-05-16 03:20:00,61.6,57.4,30.00,WSW,250,0.0,0.0,86,0.00,CLR,,0.00,WeatherDisplay:10.37,2013-05-16 07:20:00,
2013-05-16 03:31:00,61.1,57.2,30.00,WSW,250,0.0,0.0,87,0.00,CLR,,0.00,WeatherDisplay:10.37,2013-05-16 07:31:00,
2013-05-16 03:40:00,60.7,56.8,30.00,WSW,250,0.0,0.0,87,0.00,CLR,,0.00,WeatherDisplay:10.37,2013-05-16 07:40:00,
2013-05-16 03:50:00,60.4,56.8,30.00,WSW,250,0.0,0.0,88,0.00,CLR,,0.00,WeatherDisplay:10.37,2013-05-16 07:50:00,
2013-05-16 04:01:00,60.0,56.7,30.00,WSW,250,0.0,0.0,89,0.00,CLR,,0.00,WeatherDisplay:10.37,2013-05-16 08:01:00,
2013-05-16 04:10:00,59.7,56.8,30.00,WSW,250,0.0,0.0,90,0.00,CLR,,0.00,WeatherDisplay:10.37,2013-05-16 08:10:00,
2013-05-16 04:20:00,59.6,56.6,30.00,WSW,250,0.0,0.0,90,0.00,CLR,,0.00,WeatherDisplay:10.37,2013-05-16 08:20:00,
2013-05-16 04:30:00,59.5,56.9,30.01,WSW,250,0.0,0.0,91,0.00,CLR,,0.00,WeatherDisplay:10.37,2013-05-16 08:30:00,
2013-05-16 04:40:00,59.5,56.8,30.01,WSW,250,0.0,0.0,91,0.00,CLR,,0.00,WeatherDisplay:10.37,2013-05-16 08:40:00,
2013-05-16 04:50:00,59.5,57.2,30.01,WSW,250,0.0,0.0,92,0.00,CLR,,0.00,WeatherDisplay:10.37,2013-05-16 08:50:00,
2013-05-16 05:01:00,59.7,57.4,30.01,WSW,250,0.0,0.0,92,0.00,CLR,,0.00,WeatherDisplay:10.37,2013-05-16 09:01:00,
2013-05-16 05:10:00,59.8,57.5,30.02,WSW,250,0.0,0.0,92,0.00,CLR,,0.00,WeatherDisplay:10.37,2013-05-16 09:10:00,
2013-05-16 05:20:00,59.8,57.5,30.02,WSW,250,0.0,0.0,92,0.00,CLR,,0.00,WeatherDisplay:10.37,2013-05-16 09:20:00,
2013-05-16 05:31:00,59.8,57.5,30.02,WSW,250,0.0,0.0,92,0.00,CLR,,0.00,WeatherDisplay:10.37,2013-05-16 09:31:00,
2013-05-16 05:40:00,59.8,57.5,30.02,WSW,250,0.0,0.0,92,0.00,CLR,,0.00,WeatherDisplay:10.37,2013-05-16 09:40:00,
2013-05-16 05:50:00,59.7,57.4,30.02,WSW,250,0.0,0.0,92,0.00,CLR,,0.00,WeatherDisplay:10.37,2013-05-16 09:50:00,
2013-05-16 06:00:00,59.7,57.4,30.02,WSW,250,0.0,0.0,92,0.00,CLR,,0.00,WeatherDisplay:10.37,2013-05-16 10:00:00,
2013-05-16 06:10:00,59.6,57.3,30.02,WSW,250,0.0,0.0,92,0.00,CLR,,0.00,WeatherDisplay:10.37,2013-05-16 10:10:00,
2013-05-16 06:20:00,59.5,57.5,30.02,WSW,250,0.0,0.0,93,0.00,CLR,,0.00,WeatherDisplay:10.37,2013-05-16 10:20:00,
2013-05-16 06:31:00,59.6,57.6,30.02,WSW,250,0.0,0.0,93,0.00,CLR,,0.00,WeatherDisplay:10.37,2013-05-16 10:31:00,
2013-05-16 06:40:00,59.7,57.7,30.02,WSW,250,0.0,0.0,93,0.00,CLR,,0.00,WeatherDisplay:10.37,2013-05-16 10:40:00,
2013-05-16 06:50:00,59.7,57.7,30.03,WSW,250,0.0,0.0,93,0.00,CLR,,0.00,WeatherDisplay:10.37,2013-05-16 10:50:00,
2013-05-16 07:01:00,59.9,57.8,30.03,WSW,250,0.0,0.0,93,0.00,CLR,,0.00,WeatherDisplay:10.37,2013-05-16 11:01:00,
2013-05-16 07:10:00,59.9,58.2,30.03,WSW,250,0.0,0.0,94,0.00,CLR,,0.00,WeatherDisplay:10.37,2013-05-16 11:10:00,
2013-05-16 07:20:00,60.0,58.3,30.04,WSW,250,0.0,0.0,94,0.00,CLR,,0.00,WeatherDisplay:10.37,2013-05-16 11:20:00,
2013-05-16 07:31:00,60.1,58.4,30.04,West,279,0.0,0.0,94,0.00,CLR,,0.00,WeatherDisplay:10.37,2013-05-16 11:31:00,
2013-05-16 07:40:00,60.4,58.7,30.04,SE,137,0.0,0.0,94,0.00,CLR,,0.00,WeatherDisplay:10.37,2013-05-16 11:40:00,
2013-05-16 07:50:00,60.8,59.1,30.05,SE,137,0.0,0.0,94,0.00,CLR,,0.00,WeatherDisplay:10.37,2013-05-16 11:50:00,
2013-05-16 08:01:00,61.3,59.3,30.05,SE,137,0.0,0.0,93,0.00,CLR,,0.00,WeatherDisplay:10.37,2013-05-16 12:01:00,
2013-05-16 08:10:00,61.6,59.6,30.05,ESE,115,0.0,0.0,93,0.00,CLR,,0.00,WeatherDisplay:10.37,2013-05-16 12:10:00,
2013-05-16 08:20:00,62.3,59.9,30.06,NE,36,0.0,2.0,92,0.00,CLR,,0.00,WeatherDisplay:10.37,2013-05-16 12:20:00,
2013-05-16 08:31:00,63.1,60.1,30.06,NE,36,0.0,3.0,90,0.00,CLR,,0.00,WeatherDisplay:10.37,2013-05-16 12:31:00,
2013-05-16 08:40:00,63.8,60.1,30.06,NE,36,0.0,3.0,88,0.00,CLR,,0.00,WeatherDisplay:10.37,2013-05-16 12:40:00,
2013-05-16 08:50:00,64.3,60.3,30.06,NE,36,0.0,1.0,87,0.00,CLR,,0.00,WeatherDisplay:10.37,2013-05-16 12:50:00,
2013-05-16 09:01:00,64.7,60.4,30.06,NE,36,0.0,2.0,86,0.00,CLR,,0.00,WeatherDisplay:10.37,2013-05-16 13:01:00,
2013-05-16 09:10:00,65.2,60.6,30.06,NE,36,0.0,2.0,85,0.00,CLR,,0.00,WeatherDisplay:10.37,2013-05-16 13:10:00,
2013-05-16 09:20:00,65.6,60.6,30.07,NE,36,0.0,0.0,84,0.00,CLR,,0.00,WeatherDisplay:10.37,2013-05-16 13:20:00,
2013-05-16 09:31:00,65.9,60.6,30.08,NNW,332,0.0,4.0,83,0.00,CLR,,0.00,WeatherDisplay:10.37,2013-05-16 13:31:00,
2013-05-16 09:40:00,66.2,60.9,30.07,WNW,284,0.0,2.0,83,0.00,CLR,,0.00,WeatherDisplay:10.37,2013-05-16 13:40:00,
2013-05-16 09:50:00,66.5,61.2,30.07,NW,310,0.0,1.0,83,0.00,CLR,,0.00,WeatherDisplay:10.37,2013-05-16 13:50:00,
2013-05-16 10:01:00,66.9,61.2,30.07,NW,310,0.0,1.0,82,0.00,CLR,,0.00,WeatherDisplay:10.37,2013-05-16 14:01:00,
2013-05-16 10:10:00,67.1,61.8,30.07,NW,309,0.0,1.0,83,0.00,CLR,,0.00,WeatherDisplay:10.37,2013-05-16 14:10:00,
2013-05-16 10:20:00,67.2,61.5,30.07,NE,42,0.0,1.0,82,0.00,CLR,,0.00,WeatherDisplay:10.37,2013-05-16 14:20:00,
2013-05-16 10:31:00,67.4,61.0,30.07,East,81,1.0,4.0,80,0.00,CLR,,0.00,WeatherDisplay:10.37,2013-05-16 14:31:00,
2013-05-16 10:40:00,67.5,61.1,30.08,East,96,0.0,2.0,80,0.00,CLR,,0.00,WeatherDisplay:10.37,2013-05-16 14:40:00,
2013-05-16 10:50:00,67.8,61.4,30.08,East,96,0.0,4.0,80,0.00,SCT,,0.00,WeatherDisplay:10.37,2013-05-16 14:50:00,
2013-05-16 11:01:00,68.3,61.5,30.08,ESE,102,0.0,4.0,79,0.00,SCT,,0.00,WeatherDisplay:10.37,2013-05-16 15:01:00,
2013-05-16 11:10:00,69.8,61.9,30.08,South,175,3.0,5.0,76,0.00,CLR,,0.00,WeatherDisplay:10.37,2013-05-16 15:10:00,
2013-05-16 11:20:00,71.7,63.7,30.07,SE,141,1.0,4.0,76,0.00,CLR,,0.00,WeatherDisplay:10.37,2013-05-16 15:20:00,
2013-05-16 11:31:00,73.9,63.1,30.06,SE,133,0.0,2.0,69,0.00,CLR,,0.00,WeatherDisplay:10.37,2013-05-16 15:31:00,
2013-05-16 11:40:00,75.4,63.2,30.06,SE,129,0.0,4.0,66,0.00,SCT,,0.00,WeatherDisplay:10.37,2013-05-16 15:40:00,
2013-05-16 11:50:00,76.9,62.9,30.06,ESE,108,1.0,5.0,62,0.00,SCT,,0.00,WeatherDisplay:10.37,2013-05-16 15:50:00,
2013-05-16 12:01:00,77.9,63.9,30.06,SE,131,1.0,5.0,62,0.00,SCT,,0.00,WeatherDisplay:10.37,2013-05-16 16:01:00,
2013-05-16 12:10:00,78.7,63.2,30.06,South,169,2.0,6.0,59,0.00,CLR,,0.00,WeatherDisplay:10.37,2013-05-16 16:10:00,
2013-05-16 12:20:00,78.7,63.6,30.05,South,175,1.0,9.0,60,0.00,CLR,,0.00,WeatherDisplay:10.37,2013-05-16 16:20:00,
2013-05-16 12:31:00,78.7,63.6,30.05,SSE,158,2.0,5.0,60,0.00,CLR,,0.00,WeatherDisplay:10.37,2013-05-16 16:31:00,
2013-05-16 12:40:00,78.6,64.0,30.05,SE,145,3.0,7.0,61,0.00,CLR,,0.00,WeatherDisplay:10.37,2013-05-16 16:40:00,
2013-05-16 12:50:00,78.8,64.7,30.04,ESE,103,2.0,10.0,62,0.00,CLR,,0.00,WeatherDisplay:10.37,2013-05-16 16:50:00,
2013-05-16 13:01:00,79.4,65.2,30.03,South,188,5.0,8.0,62,0.00,CLR,,0.00,WeatherDisplay:10.37,2013-05-16 17:01:00,
2013-05-16 13:10:00,78.7,65.0,30.03,SE,137,1.0,8.0,63,0.00,CLR,,0.00,WeatherDisplay:10.37,2013-05-16 17:10:00,
2013-05-16 13:20:00,79.1,64.5,30.02,South,181,3.0,8.0,61,0.00,CLR,,0.00,WeatherDisplay:10.37,2013-05-16 17:20:00,
2013-05-16 13:31:00,79.8,64.7,30.01,SW,219,5.0,8.0,60,0.00,CLR,,0.00,WeatherDisplay:10.37,2013-05-16 17:31:00,
2013-05-16 13:40:00,79.3,63.7,30.01,SSE,162,6.0,8.0,59,0.00,CLR,,0.00,WeatherDisplay:10.37,2013-05-16 17:40:00,
2013-05-16 13:50:00,79.5,63.5,30.01,South,180,5.0,8.0,58,0.00,CLR,,0.00,WeatherDisplay:10.37,2013-05-16 17:50:00,
2013-05-16 14:01:00,79.4,62.8,30.01,SSE,160,1.0,6.0,57,0.00,CLR,,0.00,WeatherDisplay:10.37,2013-05-16 18:01:00,
2013-05-16 14:10:00,80.6,63.5,30.00,SW,228,1.0,7.0,56,0.00,CLR,,0.00,WeatherDisplay:10.37,2013-05-16 18:10:00,
2013-05-16 14:20:00,81.7,64.9,30.00,South,187,1.0,7.0,57,0.00,CLR,,0.00,WeatherDisplay:10.37,2013-05-16 18:20:00,
2013-05-16 14:31:00,82.1,64.3,30.00,SW,236,5.0,8.0,55,0.00,CLR,,0.00,WeatherDisplay:10.37,2013-05-16 18:31:00,
2013-05-16 14:40:00,82.0,63.7,30.00,SSW,210,6.0,12.0,54,0.00,CLR,,0.00,WeatherDisplay:10.37,2013-05-16 18:40:00,
2013-05-16 14:50:00,81.6,63.9,29.99,SSW,208,3.0,12.0,55,0.00,CLR,,0.00,WeatherDisplay:10.37,2013-05-16 18:50:00,
2013-05-16 15:01:00,81.6,62.3,29.99,SW,234,1.0,7.0,52,0.00,CLR,,0.00,WeatherDisplay:10.37,2013-05-16 19:01:00,
2013-05-16 15:10:00,82.5,61.4,29.99,WSW,256,3.0,8.0,49,0.00,SCT,,0.00,WeatherDisplay:10.37,2013-05-16 19:10:00,
2013-05-16 15:20:00,82.0,60.4,29.99,SW,233,2.0,12.0,48,0.00,SCT,,0.00,WeatherDisplay:10.37,2013-05-16 19:20:00,
2013-05-16 15:31:00,82.0,61.5,29.99,WSW,241,2.0,7.0,50,0.00,SCT,,0.00,WeatherDisplay:10.37,2013-05-16 19:31:00,
2013-05-16 15:40:00,82.0,61.5,29.99,SW,219,3.0,10.0,50,0.00,BKN,,0.00,WeatherDisplay:10.37,2013-05-16 19:40:00,
2013-05-16 15:50:00,81.8,61.3,29.98,SW,223,3.0,12.0,50,0.00,BKN,,0.00,WeatherDisplay:10.37,2013-05-16 19:50:00,
2013-05-16 16:01:00,82.2,59.3,29.98,SW,224,5.0,8.0,46,0.00,BKN,,0.00,WeatherDisplay:10.37,2013-05-16 20:01:00,
2013-05-16 16:10:00,82.9,60.6,29.98,SSE,159,1.0,7.0,47,0.00,SCT,,0.00,WeatherDisplay:10.37,2013-05-16 20:10:00,
2013-05-16 16:20:00,83.0,60.7,29.98,SW,229,3.0,10.0,47,0.00,CLR,,0.00,WeatherDisplay:10.37,2013-05-16 20:20:00,
2013-05-16 16:31:00,82.6,60.3,29.97,SSW,206,2.0,9.0,47,0.00,CLR,,0.00,WeatherDisplay:10.37,2013-05-16 20:31:00,
2013-05-16 16:40:00,82.7,62.2,29.97,SSW,212,6.0,10.0,50,0.00,CLR,,0.00,WeatherDisplay:10.37,2013-05-16 20:40:00,
2013-05-16 16:50:00,82.7,60.4,29.97,SW,233,5.0,9.0,47,0.00,CLR,,0.00,WeatherDisplay:10.37,2013-05-16 20:50:00,
2013-05-16 17:01:00,82.9,61.8,29.96,South,187,7.0,10.0,49,0.00,CLR,,0.00,WeatherDisplay:10.37,2013-05-16 21:01:00,
2013-05-16 17:10:00,82.6,62.1,29.97,SSW,213,3.0,13.0,50,0.00,CLR,,0.00,WeatherDisplay:10.37,2013-05-16 21:10:00,
2013-05-16 17:20:00,82.5,60.8,29.97,South,191,6.0,12.0,48,0.00,CLR,,0.00,WeatherDisplay:10.37,2013-05-16 21:20:00,
2013-05-16 17:31:00,82.8,61.7,29.97,SSW,200,3.0,10.0,49,0.00,CLR,,0.00,WeatherDisplay:10.37,2013-05-16 21:31:00,
2013-05-16 17:40:00,82.9,59.4,29.96,SSW,198,3.0,10.0,45,0.00,SCT,,0.00,WeatherDisplay:10.37,2013-05-16 21:40:00,
2013-05-16 17:50:00,82.7,59.8,29.97,SW,228,1.0,12.0,46,0.00,SCT,,0.00,WeatherDisplay:10.37,2013-05-16 21:50:00,
2013-05-16 18:01:00,82.5,60.2,29.97,SW,228,6.0,12.0,47,0.00,SCT,,0.00,WeatherDisplay:10.37,2013-05-16 22:01:00,
2013-05-16 18:10:00,82.5,60.8,29.96,SW,229,3.0,7.0,48,0.00,CLR,,0.00,WeatherDisplay:10.37,2013-05-16 22:10:00,
2013-05-16 18:20:00,82.6,61.5,29.96,WSW,242,6.0,7.0,49,0.00,CLR,,0.00,WeatherDisplay:10.37,2013-05-16 22:20:00,
2013-05-16 18:31:00,82.1,61.0,29.96,West,265,5.0,7.0,49,0.00,CLR,,0.00,WeatherDisplay:10.37,2013-05-16 22:31:00,
2013-05-16 18:40:00,81.7,60.7,29.95,WSW,238,2.0,7.0,49,0.00,SCT,,0.00,WeatherDisplay:10.37,2013-05-16 22:40:00,
2013-05-16 18:50:00,81.6,61.7,29.95,SW,236,2.0,6.0,51,0.00,SCT,,0.00,WeatherDisplay:10.37,2013-05-16 22:50:00,
2013-05-16 19:01:00,81.4,61.5,29.95,SSW,204,1.0,9.0,51,0.00,SCT,,0.00,WeatherDisplay:10.37,2013-05-16 23:01:00,
2013-05-16 19:10:00,80.9,62.1,29.95,SW,218,1.0,4.0,53,0.00,CLR,,0.00,WeatherDisplay:10.37,2013-05-16 23:10:00,
2013-05-16 19:20:00,80.3,62.6,29.95,SW,219,0.0,3.0,55,0.00,CLR,,0.00,WeatherDisplay:10.37,2013-05-16 23:20:00,
2013-05-16 19:31:00,79.1,62.6,29.95,SW,220,0.0,3.0,57,0.00,CLR,,0.00,WeatherDisplay:10.37,2013-05-16 23:31:00,
2013-05-16 19:40:00,78.1,62.1,29.96,SW,220,1.0,4.0,58,0.00,CLR,,0.00,WeatherDisplay:10.37,2013-05-16 23:40:00,
2013-05-16 19:50:00,77.7,61.3,29.95,WSW,242,1.0,4.0,57,0.00,SCT,,0.00,WeatherDisplay:10.37,2013-05-16 23:50:00,
2013-05-16 20:01:00,77.3,62.3,29.96,NW,311,0.0,3.0,60,0.00,SCT,,0.00,WeatherDisplay:10.37,2013-05-17 00:01:00,
2013-05-16 20:10:00,76.7,61.8,29.96,NW,311,0.0,2.0,60,0.00,SCT,,0.00,WeatherDisplay:10.37,2013-05-17 00:10:00,
2013-05-16 20:20:00,76.0,62.0,29.96,NW,311,0.0,2.0,62,0.00,SCT,,0.00,WeatherDisplay:10.37,2013-05-17 00:20:00,
2013-05-16 20:31:00,75.5,61.6,29.97,NW,311,1.0,2.0,62,0.00,SCT,,0.00,WeatherDisplay:10.37,2013-05-17 00:31:00,
2013-05-16 20:40:00,75.1,61.6,29.97,NW,310,0.0,3.0,63,0.00,SCT,,0.00,WeatherDisplay:10.37,2013-05-17 00:40:00,
2013-05-16 20:50:00,74.6,62.1,29.97,WNW,300,1.0,4.0,65,0.00,SCT,,0.00,WeatherDisplay:10.37,2013-05-17 00:50:00,
2013-05-16 21:01:00,74.4,61.9,29.98,West,269,0.0,3.0,65,0.00,SCT,,0.00,WeatherDisplay:10.37,2013-05-17 01:01:00,
2013-05-16 21:10:00,74.1,62.0,29.98,West,268,0.0,2.0,66,0.00,CLR,,0.00,WeatherDisplay:10.37,2013-05-17 01:10:00,
2013-05-16 21:20:00,73.4,61.8,29.98,West,263,0.0,3.0,67,0.00,CLR,,0.00,WeatherDisplay:10.37,2013-05-17 01:20:00,
2013-05-16 21:31:00,73.2,61.6,29.98,West,278,1.0,3.0,67,0.00,CLR,,0.00,WeatherDisplay:10.37,2013-05-17 01:31:00,
2013-05-16 21:40:00,73.4,61.3,29.98,WSW,257,0.0,5.0,66,0.00,SCT,,0.00,WeatherDisplay:10.37,2013-05-17 01:40:00,
2013-05-16 21:50:00,73.2,60.3,29.98,West,259,2.0,5.0,64,0.00,CLR,,0.00,WeatherDisplay:10.37,2013-05-17 01:50:00,
2013-05-16 22:01:00,73.6,61.1,29.98,WSW,247,0.0,5.0,65,0.00,CLR,,0.00,WeatherDisplay:10.37,2013-05-17 02:01:00,
2013-05-16 22:10:00,73.4,60.0,29.98,SSW,212,1.0,4.0,63,0.00,CLR,,0.00,WeatherDisplay:10.37,2013-05-17 02:10:00,
2013-05-16 22:20:00,73.0,61.0,29.99,SW,215,0.0,3.0,66,0.00,CLR,,0.00,WeatherDisplay:10.37,2013-05-17 02:20:00,
2013-05-16 22:31:00,72.6,59.7,29.99,WSW,253,1.0,6.0,64,0.00,CLR,,0.00,WeatherDisplay:10.37,2013-05-17 02:31:00,
2013-05-16 22:40:00,72.8,58.6,30.00,WSW,255,5.0,7.0,61,0.00,CLR,,0.00,WeatherDisplay:10.37,2013-05-17 02:40:00,
2013-05-16 22:50:00,72.9,58.7,30.00,WSW,252,1.0,7.0,61,0.00,CLR,,0.00,WeatherDisplay:10.37,2013-05-17 02:50:00,
2013-05-16 23:01:00,72.6,57.9,30.00,WSW,253,1.0,4.0,60,0.00,CLR,,0.00,WeatherDisplay:10.37,2013-05-17 03:01:00,
2013-05-16 23:10:00,72.5,58.3,30.00,WSW,252,0.0,3.0,61,0.00,CLR,,0.00,WeatherDisplay:10.37,2013-05-17 03:10:00,
2013-05-16 23:20:00,71.8,57.6,30.00,WSW,252,1.0,3.0,61,0.00,CLR,,0.00,WeatherDisplay:10.37,2013-05-17 03:20:00,
2013-05-16 23:31:00,71.4,58.6,30.00,WSW,252,0.0,1.0,64,0.00,CLR,,0.00,WeatherDisplay:10.37,2013-05-17 03:31:00,
2013-05-16 23:40:00,70.6,58.2,30.00,WSW,252,0.0,0.0,65,0.00,CLR,,0.00,WeatherDisplay:10.37,2013-05-17 03:40:00,
2013-05-16 23:50:00,69.8,58.0,30.00,WSW,252,0.0,0.0,66,0.00,CLR,,0.00,WeatherDisplay:10.37,2013-05-17 03:50:00,